createdAt,value
2023-03-21T00:00:14.683Z,0.00
2023-03-21T00:01:14.578Z,0.00
2023-03-21T00:02:20.716Z,0.00
2023-03-21T00:03:14.566Z,0.00
2023-03-21T00:04:14.658Z,0.00
2023-03-21T00:05:16.007Z,0.00
2023-03-21T00:06:14.570Z,0.00
2023-03-21T00:07:14.539Z,0.00
2023-03-21T00:08:14.563Z,0.00
2023-03-21T00:09:14.562Z,0.00
2023-03-21T00:10:19.608Z,0.00
2023-03-21T00:11:14.662Z,0.00
2023-03-21T00:12:14.496Z,0.00
2023-03-21T00:13:14.460Z,0.00
2023-03-21T00:14:14.741Z,0.00
2023-03-21T00:15:14.467Z,0.00
2023-03-21T00:16:21.196Z,0.00
2023-03-21T00:17:14.451Z,0.00
2023-03-21T00:18:14.549Z,0.00
2023-03-21T00:19:14.520Z,0.00
2023-03-21T00:20:14.395Z,0.00
2023-03-21T00:21:46.223Z,0.00
2023-03-21T00:22:14.376Z,0.00
2023-03-21T00:23:14.441Z,0.00
2023-03-21T00:24:14.420Z,0.00
2023-03-21T00:25:14.390Z,0.00
2023-03-21T00:26:14.357Z,0.00
2023-03-21T00:27:42.618Z,0.00
2023-03-21T00:28:14.318Z,0.00
2023-03-21T00:29:14.403Z,0.00
2023-03-21T00:30:14.283Z,0.00
2023-03-21T00:31:14.325Z,0.00
2023-03-21T00:32:14.305Z,0.00
2023-03-21T00:33:22.406Z,0.00
2023-03-21T00:34:14.318Z,0.00
2023-03-21T00:35:51.585Z,0.00
2023-03-21T00:36:14.287Z,0.00
2023-03-21T00:37:14.320Z,0.00
2023-03-21T00:38:14.233Z,0.00
2023-03-21T00:39:14.265Z,0.00
2023-03-21T00:40:26.687Z,0.00
2023-03-21T00:41:25.766Z,0.00
2023-03-21T00:42:14.143Z,0.00
2023-03-21T00:43:14.247Z,0.00
2023-03-21T00:44:14.136Z,0.00
2023-03-21T00:45:14.181Z,0.00
2023-03-21T00:46:14.235Z,0.00
2023-03-21T00:47:14.168Z,0.00
2023-03-21T00:48:14.162Z,0.00
2023-03-21T00:49:14.128Z,0.00
2023-03-21T00:50:14.109Z,0.00
2023-03-21T00:51:14.132Z,0.00
2023-03-21T00:52:20.382Z,0.00
2023-03-21T00:53:14.108Z,0.00
2023-03-21T00:54:14.092Z,0.00
2023-03-21T00:55:14.011Z,0.00
2023-03-21T00:56:14.078Z,0.00
2023-03-21T00:57:14.024Z,0.00
2023-03-21T00:58:14.053Z,0.00
2023-03-21T00:59:14.024Z,0.00
2023-03-21T01:00:14.042Z,0.00
2023-03-21T01:01:14.014Z,0.00
2023-03-21T01:02:14.051Z,0.00
2023-03-21T01:03:23.873Z,0.00
2023-03-21T01:04:14.083Z,0.00
2023-03-21T01:05:13.927Z,0.00
2023-03-21T01:06:13.980Z,0.00
2023-03-21T01:07:14.003Z,0.00
2023-03-21T01:08:25.105Z,0.00
2023-03-21T01:09:13.901Z,0.00
2023-03-21T01:10:13.918Z,0.00
2023-03-21T01:11:13.871Z,0.00
2023-03-21T01:12:13.877Z,0.00
2023-03-21T01:13:13.841Z,0.00
2023-03-21T01:14:22.492Z,0.00
2023-03-21T01:15:13.885Z,0.00
2023-03-21T01:16:13.880Z,0.00
2023-03-21T01:17:13.844Z,0.00
2023-03-21T01:18:13.860Z,0.00
2023-03-21T01:19:24.247Z,0.00
2023-03-21T01:20:13.792Z,0.00
2023-03-21T01:21:13.771Z,0.00
2023-03-21T01:22:13.807Z,0.00
2023-03-21T01:23:13.769Z,0.00
2023-03-21T01:24:13.718Z,0.00
2023-03-21T01:25:22.441Z,0.00
2023-03-21T01:26:13.794Z,0.00
2023-03-21T01:27:13.707Z,0.00
2023-03-21T01:28:13.672Z,0.00
2023-03-21T01:29:13.717Z,0.00
2023-03-21T01:30:20.325Z,0.00
2023-03-21T01:31:13.729Z,0.00
2023-03-21T01:32:13.638Z,0.00
2023-03-21T01:33:13.657Z,0.00
2023-03-21T01:34:13.639Z,0.00
2023-03-21T01:35:13.719Z,0.00
2023-03-21T01:36:14.352Z,0.00
2023-03-21T01:37:13.632Z,0.00
2023-03-21T01:38:13.668Z,0.00
2023-03-21T01:39:13.620Z,0.00
2023-03-21T01:40:13.631Z,0.00
2023-03-21T01:41:19.501Z,0.00
2023-03-21T01:42:13.585Z,0.00
2023-03-21T01:43:13.573Z,0.00
2023-03-21T01:44:13.541Z,0.00
2023-03-21T01:45:13.506Z,0.00
2023-03-21T01:46:13.634Z,0.00
2023-03-21T01:47:13.617Z,0.00
2023-03-21T01:48:13.553Z,0.00
2023-03-21T01:49:13.538Z,0.00
2023-03-21T01:50:13.586Z,0.00
2023-03-21T01:51:13.510Z,0.00
2023-03-21T01:52:23.598Z,0.00
2023-03-21T01:53:13.418Z,0.00
2023-03-21T01:54:13.479Z,0.00
2023-03-21T01:55:13.479Z,0.00
2023-03-21T01:56:13.364Z,0.00
2023-03-21T01:57:13.523Z,0.00
2023-03-21T01:58:13.363Z,0.00
2023-03-21T01:59:13.396Z,0.00
2023-03-21T02:00:13.416Z,0.00
2023-03-21T02:01:13.443Z,0.00
2023-03-21T02:02:13.364Z,0.00
2023-03-21T02:03:20.983Z,0.00
2023-03-21T02:04:13.466Z,0.00
2023-03-21T02:05:13.391Z,0.00
2023-03-21T02:06:13.380Z,0.00
2023-03-21T02:07:13.340Z,0.00
2023-03-21T02:08:13.315Z,0.00
2023-03-21T02:09:13.268Z,0.00
2023-03-21T02:10:13.334Z,0.00
2023-03-21T02:11:13.267Z,0.00
2023-03-21T02:12:13.286Z,0.00
2023-03-21T02:13:13.283Z,0.00
2023-03-21T02:14:15.327Z,0.00
2023-03-21T02:15:13.292Z,0.00
2023-03-21T02:16:13.292Z,0.00
2023-03-21T02:17:13.203Z,0.00
2023-03-21T02:18:13.161Z,0.00
2023-03-21T02:26:45.072Z,0.00
2023-03-21T02:27:43.796Z,0.00
2023-03-21T02:28:43.742Z,0.00
2023-03-21T02:29:43.741Z,0.00
2023-03-21T02:30:51.730Z,0.00
2023-03-21T02:31:43.814Z,0.00
2023-03-21T02:32:43.720Z,0.00
2023-03-21T02:33:43.791Z,0.00
2023-03-21T02:34:43.740Z,0.00
2023-03-21T02:35:50.619Z,0.00
2023-03-21T02:36:43.732Z,0.00
2023-03-21T02:37:46.787Z,0.00
2023-03-21T02:38:43.662Z,0.00
2023-03-21T02:39:43.676Z,0.00
2023-03-21T02:40:43.617Z,0.00
2023-03-21T02:41:43.679Z,0.00
2023-03-21T02:42:48.899Z,0.00
2023-03-21T02:43:43.615Z,0.00
2023-03-21T02:44:43.749Z,0.00
2023-03-21T02:45:43.652Z,0.00
2023-03-21T02:46:49.024Z,0.00
2023-03-21T02:47:43.597Z,0.00
2023-03-21T02:48:50.628Z,0.00
2023-03-21T02:49:44.141Z,0.00
2023-03-21T02:50:43.571Z,0.00
2023-03-21T02:51:44.242Z,0.00
2023-03-21T02:52:43.553Z,0.00
2023-03-21T02:53:43.566Z,0.00
2023-03-21T02:54:48.314Z,0.00
2023-03-21T02:55:43.517Z,0.00
2023-03-21T02:56:43.531Z,0.00
2023-03-21T02:57:44.119Z,0.00
2023-03-21T02:58:43.432Z,0.00
2023-03-21T02:59:53.243Z,0.00
2023-03-21T03:00:43.442Z,0.00
2023-03-21T03:01:43.517Z,0.00
2023-03-21T03:02:43.439Z,0.00
2023-03-21T03:03:43.442Z,0.00
2023-03-21T03:04:43.433Z,0.00
2023-03-21T03:05:43.494Z,0.00
2023-03-21T03:06:43.435Z,0.00
2023-03-21T03:07:43.371Z,0.00
2023-03-21T03:08:56.253Z,0.00
2023-03-21T03:09:43.337Z,0.00
2023-03-21T03:10:43.318Z,0.00
2023-03-21T03:11:43.304Z,0.00
2023-03-21T03:12:43.316Z,0.00
2023-03-21T03:13:43.319Z,0.00
2023-03-21T03:15:00.122Z,0.00
2023-03-21T03:15:43.352Z,0.00
2023-03-21T03:16:43.277Z,0.00
2023-03-21T03:17:43.336Z,0.00
2023-03-21T03:18:43.323Z,0.00
2023-03-21T03:19:50.047Z,0.00
2023-03-21T03:20:43.250Z,0.00
2023-03-21T03:21:43.317Z,0.00
2023-03-21T03:22:43.226Z,0.00
2023-03-21T03:23:43.202Z,0.00
2023-03-21T03:24:43.251Z,0.00
2023-03-21T03:25:43.722Z,0.00
2023-03-21T03:26:43.163Z,0.00
2023-03-21T03:27:43.275Z,0.00
2023-03-21T03:28:43.157Z,0.00
2023-03-21T03:29:43.179Z,0.00
2023-03-21T03:30:53.990Z,0.00
2023-03-21T03:31:43.235Z,0.00
2023-03-21T03:32:43.180Z,0.00
2023-03-21T03:33:43.108Z,0.00
2023-03-21T03:34:43.044Z,0.00
2023-03-21T03:35:44.832Z,0.00
2023-03-21T03:36:43.113Z,0.00
2023-03-21T03:37:43.018Z,0.00
2023-03-21T03:38:42.998Z,0.00
2023-03-21T03:39:43.049Z,0.00
2023-03-21T03:40:43.063Z,0.00
2023-03-21T03:42:05.879Z,0.00
2023-03-21T03:42:43.024Z,0.00
2023-03-21T03:43:43.092Z,0.00
2023-03-21T03:44:43.051Z,0.00
2023-03-21T03:45:42.953Z,0.00
2023-03-21T03:46:43.021Z,0.00
2023-03-21T03:47:55.966Z,0.00
2023-03-21T03:48:42.949Z,0.00
2023-03-21T03:49:42.949Z,0.00
2023-03-21T03:50:42.891Z,0.00
2023-03-21T03:51:42.904Z,0.00
2023-03-21T03:52:55.333Z,0.00
2023-03-21T03:53:42.911Z,0.00
2023-03-21T03:54:42.843Z,0.00
2023-03-21T03:55:42.887Z,0.00
2023-03-21T03:56:42.814Z,0.00
2023-03-21T03:57:42.821Z,0.00
2023-03-21T03:58:45.902Z,0.00
2023-03-21T03:59:42.786Z,0.00
2023-03-21T04:00:42.792Z,0.00
2023-03-21T04:01:42.897Z,0.00
2023-03-21T04:02:42.858Z,0.00
2023-03-21T04:03:49.756Z,0.00
2023-03-21T04:04:42.821Z,0.00
2023-03-21T04:05:42.786Z,0.00
2023-03-21T04:06:42.734Z,0.00
2023-03-21T04:07:42.683Z,0.00
2023-03-21T04:08:42.758Z,0.00
2023-03-21T04:09:44.965Z,0.00
2023-03-21T04:10:42.703Z,0.00
2023-03-21T04:11:42.647Z,0.00
2023-03-21T04:12:42.695Z,0.00
2023-03-21T04:13:42.656Z,0.00
2023-03-21T04:14:46.117Z,0.00
2023-03-21T04:15:42.705Z,0.00
2023-03-21T04:16:42.674Z,0.00
2023-03-21T04:17:42.589Z,0.00
2023-03-21T04:18:42.671Z,0.00
2023-03-21T04:19:42.626Z,0.00
2023-03-21T04:20:42.614Z,0.00
2023-03-21T04:21:42.564Z,0.00
2023-03-21T04:22:42.583Z,0.00
2023-03-21T04:23:42.524Z,0.00
2023-03-21T04:24:42.519Z,0.00
2023-03-21T04:25:55.457Z,0.00
2023-03-21T04:26:42.557Z,0.00
2023-03-21T04:27:42.524Z,0.00
2023-03-21T04:28:42.537Z,0.00
2023-03-21T04:29:42.464Z,0.00
2023-03-21T04:30:54.998Z,0.00
2023-03-21T04:31:42.534Z,0.00
2023-03-21T04:32:42.503Z,0.00
2023-03-21T04:33:42.566Z,0.00
2023-03-21T04:34:42.427Z,0.00
2023-03-21T04:35:42.435Z,0.00
2023-03-21T04:36:42.487Z,0.00
2023-03-21T04:37:42.381Z,0.00
2023-03-21T04:38:42.473Z,0.00
2023-03-21T04:39:42.402Z,0.00
2023-03-21T04:40:42.391Z,0.00
2023-03-21T04:41:42.333Z,0.00
2023-03-21T04:42:42.319Z,0.00
2023-03-21T04:43:42.456Z,0.00
2023-03-21T04:44:42.356Z,0.00
2023-03-21T04:45:42.350Z,0.00
2023-03-21T04:46:42.372Z,0.00
2023-03-21T04:47:42.281Z,0.00
2023-03-21T04:48:42.342Z,0.00
2023-03-21T04:49:42.277Z,0.00
2023-03-21T04:50:42.287Z,0.00
2023-03-21T04:51:42.307Z,0.00
2023-03-21T04:52:42.256Z,0.00
2023-03-21T04:53:42.206Z,0.00
2023-03-21T04:54:42.209Z,0.00
2023-03-21T04:55:42.232Z,0.00
2023-03-21T04:56:42.196Z,0.00
2023-03-21T04:57:42.108Z,0.00
2023-03-21T04:58:42.161Z,0.00
2023-03-21T04:59:42.119Z,0.00
2023-03-21T05:00:42.244Z,0.00
2023-03-21T05:01:42.116Z,0.00
2023-03-21T05:02:42.108Z,0.00
2023-03-21T05:03:42.246Z,0.00
2023-03-21T05:04:42.079Z,0.00
2023-03-21T05:05:42.075Z,0.00
2023-03-21T05:06:42.054Z,0.00
2023-03-21T05:07:42.008Z,0.00
2023-03-21T05:08:42.016Z,0.00
2023-03-21T05:09:42.031Z,0.00
2023-03-21T05:10:42.005Z,0.00
2023-03-21T05:11:41.998Z,0.00
2023-03-21T05:12:41.950Z,0.00
2023-03-21T05:13:41.994Z,0.00
2023-03-21T05:14:41.921Z,0.00
2023-03-21T05:15:41.939Z,0.00
2023-03-21T05:16:42.011Z,0.00
2023-03-21T05:17:41.914Z,0.00
2023-03-21T05:18:41.897Z,0.00
2023-03-21T05:19:41.875Z,0.00
2023-03-21T05:20:41.890Z,0.00
2023-03-21T05:21:42.168Z,0.00
2023-03-21T05:22:41.871Z,0.00
2023-03-21T05:23:41.827Z,0.00
2023-03-21T05:24:42.083Z,0.00
2023-03-21T05:25:41.787Z,5.62
2023-03-21T05:26:41.802Z,5.62
2023-03-21T05:27:41.769Z,5.62
2023-03-21T05:28:41.784Z,5.62
2023-03-21T05:29:41.764Z,5.62
2023-03-21T05:30:41.891Z,5.62
2023-03-21T05:31:41.766Z,5.62
2023-03-21T05:32:41.738Z,5.62
2023-03-21T05:33:41.719Z,11.25
2023-03-21T05:34:41.702Z,11.25
2023-03-21T05:35:41.748Z,11.25
2023-03-21T05:36:41.709Z,11.25
2023-03-21T05:37:41.686Z,11.25
2023-03-21T05:38:41.669Z,11.25
2023-03-21T05:39:41.669Z,16.88
2023-03-21T05:40:41.639Z,16.88
2023-03-21T05:41:41.647Z,16.88
2023-03-21T05:42:41.653Z,22.50
2023-03-21T05:43:41.638Z,22.50
2023-03-21T05:44:41.619Z,22.50
2023-03-21T05:45:41.569Z,22.50
2023-03-21T05:46:41.611Z,22.50
2023-03-21T05:47:41.642Z,28.12
2023-03-21T05:48:41.556Z,28.12
2023-03-21T05:49:41.549Z,33.75
2023-03-21T05:50:41.543Z,33.75
2023-03-21T05:51:41.515Z,39.38
2023-03-21T05:52:41.569Z,39.38
2023-03-21T05:53:41.524Z,39.38
2023-03-21T05:54:41.497Z,45.00
2023-03-21T05:55:41.478Z,45.00
2023-03-21T05:56:41.478Z,50.62
2023-03-21T05:57:41.456Z,56.25
2023-03-21T05:58:41.470Z,56.25
2023-03-21T05:59:41.456Z,56.25
2023-03-21T06:00:41.458Z,61.88
2023-03-21T06:01:41.406Z,61.88
2023-03-21T06:02:41.470Z,67.50
2023-03-21T06:03:41.432Z,67.50
2023-03-21T06:04:41.400Z,73.12
2023-03-21T06:05:41.433Z,73.12
2023-03-21T06:06:41.411Z,73.12
2023-03-21T06:07:41.378Z,73.12
2023-03-21T06:08:41.376Z,73.12
2023-03-21T06:09:41.319Z,78.75
2023-03-21T06:10:41.375Z,78.75
2023-03-21T06:11:41.321Z,73.12
2023-03-21T06:12:41.333Z,73.12
2023-03-21T06:13:41.304Z,73.12
2023-03-21T06:14:41.286Z,67.50
2023-03-21T06:15:41.321Z,67.50
2023-03-21T06:16:41.264Z,67.50
2023-03-21T06:17:41.281Z,67.50
2023-03-21T06:18:41.248Z,67.50
2023-03-21T06:19:41.240Z,67.50
2023-03-21T06:20:41.224Z,67.50
2023-03-21T06:21:41.229Z,67.50
2023-03-21T06:22:41.221Z,73.12
2023-03-21T06:23:41.194Z,73.12
2023-03-21T06:24:41.218Z,73.12
2023-03-21T06:25:41.166Z,73.12
2023-03-21T06:26:41.164Z,78.75
2023-03-21T06:27:41.170Z,78.75
2023-03-21T06:28:41.133Z,78.75
2023-03-21T06:29:41.132Z,84.38
2023-03-21T06:30:41.174Z,90.00
2023-03-21T06:31:41.205Z,90.00
2023-03-21T06:32:41.128Z,95.62
2023-03-21T06:33:41.077Z,106.88
2023-03-21T06:34:41.076Z,112.50
2023-03-21T06:35:41.156Z,118.12
2023-03-21T06:36:41.096Z,123.75
2023-03-21T06:37:41.089Z,123.75
2023-03-21T06:38:41.040Z,123.75
2023-03-21T06:39:41.042Z,123.75
2023-03-21T06:40:41.013Z,129.38
2023-03-21T06:41:41.044Z,129.38
2023-03-21T06:42:41.036Z,129.38
2023-03-21T06:43:40.989Z,135.00
2023-03-21T06:44:40.968Z,135.00
2023-03-21T06:45:40.952Z,135.00
2023-03-21T06:46:40.973Z,135.00
2023-03-21T06:47:41.050Z,135.00
2023-03-21T06:48:40.961Z,135.00
2023-03-21T06:49:40.974Z,140.62
2023-03-21T06:50:40.930Z,140.62
2023-03-21T06:51:40.968Z,140.62
2023-03-21T06:52:40.949Z,140.62
2023-03-21T06:53:40.899Z,140.62
2023-03-21T06:54:40.881Z,140.62
2023-03-21T06:55:40.855Z,146.25
2023-03-21T06:56:40.865Z,146.25
2023-03-21T06:57:40.865Z,146.25
2023-03-21T06:58:40.922Z,146.25
2023-03-21T06:59:40.887Z,146.25
2023-03-21T07:00:40.867Z,151.88
2023-03-21T07:01:40.811Z,151.88
2023-03-21T07:02:40.912Z,157.50
2023-03-21T07:03:40.785Z,163.12
2023-03-21T07:04:40.765Z,168.75
2023-03-21T07:05:40.860Z,168.75
2023-03-21T07:06:40.759Z,174.38
2023-03-21T07:07:40.779Z,174.38
2023-03-21T07:08:40.747Z,174.38
2023-03-21T07:09:40.700Z,180.00
2023-03-21T07:10:40.739Z,196.88
2023-03-21T07:11:40.689Z,208.12
2023-03-21T07:12:40.716Z,213.75
2023-03-21T07:13:40.686Z,219.38
2023-03-21T07:14:40.877Z,230.62
2023-03-21T07:15:40.636Z,236.25
2023-03-21T07:16:40.697Z,241.88
2023-03-21T07:17:40.638Z,236.25
2023-03-21T07:18:40.627Z,225.00
2023-03-21T07:19:40.609Z,213.75
2023-03-21T07:20:40.661Z,208.12
2023-03-21T07:21:40.586Z,208.12
2023-03-21T07:22:40.599Z,196.88
2023-03-21T07:23:40.603Z,191.25
2023-03-21T07:24:40.562Z,185.62
2023-03-21T07:25:40.929Z,185.62
2023-03-21T07:26:40.542Z,180.00
2023-03-21T07:27:41.374Z,185.62
2023-03-21T07:28:40.537Z,191.25
2023-03-21T07:29:40.507Z,202.50
2023-03-21T07:30:40.502Z,213.75
2023-03-21T07:31:40.646Z,230.62
2023-03-21T07:32:40.555Z,247.50
2023-03-21T07:33:40.472Z,264.38
2023-03-21T07:34:40.446Z,270.00
2023-03-21T07:35:41.038Z,275.62
2023-03-21T07:36:40.438Z,286.88
2023-03-21T07:37:40.426Z,241.88
2023-03-21T07:38:40.462Z,213.75
2023-03-21T07:39:40.397Z,196.88
2023-03-21T07:40:40.402Z,191.25
2023-03-21T07:41:40.405Z,191.25
2023-03-21T07:42:40.377Z,196.88
2023-03-21T07:43:40.366Z,196.88
2023-03-21T07:44:40.359Z,202.50
2023-03-21T07:45:40.580Z,208.12
2023-03-21T07:46:40.310Z,213.75
2023-03-21T07:47:40.419Z,213.75
2023-03-21T07:48:40.313Z,213.75
2023-03-21T07:49:40.284Z,208.12
2023-03-21T07:50:40.298Z,202.50
2023-03-21T07:51:40.266Z,191.25
2023-03-21T07:52:40.298Z,191.25
2023-03-21T07:53:40.301Z,196.88
2023-03-21T07:54:40.225Z,202.50
2023-03-21T07:55:40.615Z,213.75
2023-03-21T07:56:40.234Z,225.00
2023-03-21T07:57:40.283Z,247.50
2023-03-21T07:58:40.209Z,264.38
2023-03-21T07:59:40.188Z,281.25
2023-03-21T08:00:40.183Z,281.25
2023-03-21T08:01:40.177Z,292.50
2023-03-21T08:02:40.296Z,298.12
2023-03-21T08:03:40.228Z,298.12
2023-03-21T08:04:40.133Z,303.75
2023-03-21T08:05:40.533Z,309.38
2023-03-21T08:06:40.203Z,331.88
2023-03-21T08:07:40.137Z,354.38
2023-03-21T08:08:40.101Z,376.88
2023-03-21T08:09:40.075Z,399.38
2023-03-21T08:10:40.107Z,405.00
2023-03-21T08:11:40.061Z,399.38
2023-03-21T08:12:40.064Z,393.75
2023-03-21T08:13:40.031Z,399.38
2023-03-21T08:14:40.062Z,399.38
2023-03-21T08:15:40.352Z,405.00
2023-03-21T08:16:40.000Z,410.62
2023-03-21T08:17:40.012Z,416.25
2023-03-21T08:18:40.034Z,427.50
2023-03-21T08:19:40.001Z,416.25
2023-03-21T08:20:39.956Z,416.25
2023-03-21T08:21:39.947Z,433.12
2023-03-21T08:22:39.937Z,450.00
2023-03-21T08:23:39.938Z,495.00
2023-03-21T08:24:39.917Z,545.62
2023-03-21T08:25:40.278Z,579.38
2023-03-21T08:26:39.909Z,562.50
2023-03-21T08:27:39.966Z,523.12
2023-03-21T08:28:39.863Z,534.38
2023-03-21T08:29:39.857Z,506.25
2023-03-21T08:30:39.950Z,478.12
2023-03-21T08:31:39.905Z,472.50
2023-03-21T08:32:39.832Z,483.75
2023-03-21T08:33:39.874Z,585.00
2023-03-21T08:34:39.839Z,630.00
2023-03-21T08:35:41.220Z,613.12
2023-03-21T08:36:39.821Z,714.38
2023-03-21T08:37:39.800Z,630.00
2023-03-21T08:38:39.769Z,613.12
2023-03-21T08:39:39.950Z,534.38
2023-03-21T08:40:39.744Z,438.75
2023-03-21T08:41:39.740Z,433.12
2023-03-21T08:42:39.710Z,421.88
2023-03-21T08:43:39.709Z,421.88
2023-03-21T08:44:39.749Z,416.25
2023-03-21T08:45:39.985Z,405.00
2023-03-21T08:46:39.714Z,388.12
2023-03-21T08:47:39.783Z,376.88
2023-03-21T08:48:39.683Z,354.38
2023-03-21T08:49:39.714Z,326.25
2023-03-21T08:50:39.682Z,298.12
2023-03-21T08:51:39.626Z,281.25
2023-03-21T08:52:39.610Z,270.00
2023-03-21T08:53:39.622Z,258.75
2023-03-21T08:54:39.603Z,253.12
2023-03-21T08:55:39.875Z,247.50
2023-03-21T08:56:39.594Z,241.88
2023-03-21T08:57:39.563Z,241.88
2023-03-21T08:58:39.552Z,236.25
2023-03-21T08:59:39.545Z,247.50
2023-03-21T09:00:39.560Z,247.50
2023-03-21T09:01:39.565Z,247.50
2023-03-21T09:02:39.495Z,253.12
2023-03-21T09:03:39.522Z,258.75
2023-03-21T09:04:39.521Z,258.75
2023-03-21T09:05:39.979Z,264.38
2023-03-21T09:06:39.476Z,264.38
2023-03-21T09:07:39.471Z,270.00
2023-03-21T09:08:39.487Z,270.00
2023-03-21T09:09:39.480Z,275.62
2023-03-21T09:10:39.440Z,281.25
2023-03-21T09:11:39.419Z,281.25
2023-03-21T09:12:39.414Z,286.88
2023-03-21T09:13:39.433Z,281.25
2023-03-21T09:14:39.387Z,281.25
2023-03-21T09:15:39.702Z,275.62
2023-03-21T09:16:39.350Z,270.00
2023-03-21T09:17:39.369Z,264.38
2023-03-21T09:18:39.370Z,264.38
2023-03-21T09:19:39.368Z,264.38
2023-03-21T09:20:39.309Z,264.38
2023-03-21T09:21:39.311Z,270.00
2023-03-21T09:22:41.845Z,275.62
2023-03-21T09:23:39.287Z,281.25
2023-03-21T09:24:39.316Z,286.88
2023-03-21T09:25:39.675Z,281.25
2023-03-21T09:26:39.264Z,270.00
2023-03-21T09:27:39.315Z,264.38
2023-03-21T09:28:39.230Z,258.75
2023-03-21T09:29:39.222Z,258.75
2023-03-21T09:30:39.248Z,253.12
2023-03-21T09:31:39.256Z,247.50
2023-03-21T09:32:39.211Z,247.50
2023-03-21T09:33:39.238Z,241.88
2023-03-21T09:34:39.182Z,236.25
2023-03-21T09:35:39.529Z,230.62
2023-03-21T09:36:39.170Z,219.38
2023-03-21T09:37:39.198Z,213.75
2023-03-21T09:38:39.151Z,213.75
2023-03-21T09:39:39.125Z,213.75
2023-03-21T09:40:39.102Z,213.75
2023-03-21T09:41:39.115Z,213.75
2023-03-21T09:42:39.102Z,213.75
2023-03-21T09:43:39.116Z,213.75
2023-03-21T09:44:39.080Z,213.75
2023-03-21T09:45:39.367Z,208.12
2023-03-21T09:46:39.153Z,196.88
2023-03-21T09:47:39.111Z,191.25
2023-03-21T09:48:46.955Z,185.62
2023-03-21T09:49:39.106Z,185.62
2023-03-21T09:50:38.987Z,191.25
2023-03-21T09:51:38.997Z,196.88
2023-03-21T09:52:38.996Z,202.50
2023-03-21T09:53:38.980Z,208.12
2023-03-21T09:54:39.098Z,208.12
2023-03-21T09:55:39.296Z,219.38
2023-03-21T09:56:38.942Z,230.62
2023-03-21T09:57:38.960Z,247.50
2023-03-21T09:58:38.945Z,258.75
2023-03-21T09:59:38.902Z,270.00
2023-03-21T10:00:38.955Z,281.25
2023-03-21T10:01:38.902Z,292.50
2023-03-21T10:02:38.897Z,298.12
2023-03-21T10:03:38.867Z,292.50
2023-03-21T10:04:39.019Z,292.50
2023-03-21T10:05:39.200Z,298.12
2023-03-21T10:06:38.863Z,303.75
2023-03-21T10:07:38.816Z,309.38
2023-03-21T10:08:38.866Z,315.00
2023-03-21T10:09:38.804Z,320.62
2023-03-21T10:10:38.923Z,331.88
2023-03-21T10:11:38.833Z,337.50
2023-03-21T10:12:38.809Z,337.50
2023-03-21T10:13:38.757Z,331.88
2023-03-21T10:14:38.743Z,326.25
2023-03-21T10:15:39.082Z,326.25
2023-03-21T10:16:38.730Z,326.25
2023-03-21T10:17:38.711Z,337.50
2023-03-21T10:18:38.745Z,337.50
2023-03-21T10:19:38.688Z,343.12
2023-03-21T10:20:38.730Z,348.75
2023-03-21T10:21:59.321Z,360.00
2023-03-21T10:22:38.674Z,348.75
2023-03-21T10:23:38.651Z,343.12
2023-03-21T10:24:38.782Z,331.88
2023-03-21T10:25:38.891Z,315.00
2023-03-21T10:26:38.622Z,315.00
2023-03-21T10:27:38.608Z,303.75
2023-03-21T10:28:52.004Z,298.12
2023-03-21T10:29:38.686Z,286.88
2023-03-21T10:30:38.627Z,270.00
2023-03-21T10:31:38.578Z,264.38
2023-03-21T10:32:38.578Z,253.12
2023-03-21T10:33:38.541Z,253.12
2023-03-21T10:34:38.568Z,253.12
2023-03-21T10:35:38.819Z,247.50
2023-03-21T10:36:38.505Z,247.50
2023-03-21T10:37:38.496Z,247.50
2023-03-21T10:38:38.474Z,247.50
2023-03-21T10:39:38.492Z,241.88
2023-03-21T10:40:38.462Z,236.25
2023-03-21T10:41:38.444Z,230.62
2023-03-21T10:42:38.466Z,225.00
2023-03-21T10:43:38.451Z,219.38
2023-03-21T10:44:38.405Z,219.38
2023-03-21T10:45:38.793Z,213.75
2023-03-21T10:46:38.673Z,208.12
2023-03-21T10:47:38.692Z,202.50
2023-03-21T10:48:38.594Z,196.88
2023-03-21T10:50:05.780Z,196.88
2023-03-21T10:50:38.483Z,191.25
2023-03-21T10:51:38.351Z,185.62
2023-03-21T10:52:38.436Z,185.62
2023-03-21T10:53:38.398Z,180.00
2023-03-21T10:54:38.337Z,174.38
2023-03-21T10:55:38.569Z,168.75
2023-03-21T10:56:38.298Z,163.12
2023-03-21T10:57:38.394Z,163.12
2023-03-21T10:58:38.258Z,157.50
2023-03-21T10:59:38.293Z,157.50
2023-03-21T11:00:38.257Z,157.50
2023-03-21T11:01:38.360Z,157.50
2023-03-21T11:02:38.388Z,157.50
2023-03-21T11:03:38.243Z,157.50
2023-03-21T11:04:38.400Z,163.12
2023-03-21T11:05:38.651Z,163.12
2023-03-21T11:06:38.173Z,168.75
2023-03-21T11:07:38.208Z,168.75
2023-03-21T11:08:38.174Z,168.75
2023-03-21T11:09:38.158Z,168.75
2023-03-21T11:10:38.251Z,168.75
2023-03-21T11:11:38.152Z,168.75
2023-03-21T11:12:38.112Z,174.38
2023-03-21T11:13:38.137Z,174.38
2023-03-21T11:14:38.111Z,174.38
2023-03-21T11:15:38.500Z,180.00
2023-03-21T11:16:39.750Z,180.00
2023-03-21T11:17:38.086Z,180.00
2023-03-21T11:18:38.049Z,180.00
2023-03-21T11:19:38.050Z,180.00
2023-03-21T11:20:38.057Z,185.62
2023-03-21T11:21:38.057Z,185.62
2023-03-21T11:22:38.017Z,180.00
2023-03-21T11:23:38.042Z,180.00
2023-03-21T11:24:38.003Z,180.00
2023-03-21T11:25:38.443Z,180.00
2023-03-21T11:26:37.976Z,180.00
2023-03-21T11:27:37.986Z,174.38
2023-03-21T11:28:37.980Z,174.38
2023-03-21T11:29:37.983Z,168.75
2023-03-21T11:30:38.014Z,168.75
2023-03-21T11:31:37.948Z,163.12
2023-03-21T11:32:37.896Z,163.12
2023-03-21T11:33:37.906Z,163.12
2023-03-21T11:34:37.912Z,157.50
2023-03-21T11:35:38.288Z,157.50
2023-03-21T11:36:37.874Z,157.50
2023-03-21T11:37:37.870Z,157.50
2023-03-21T11:38:37.875Z,151.88
2023-03-21T11:39:37.837Z,157.50
2023-03-21T11:40:37.807Z,157.50
2023-03-21T11:41:37.835Z,157.50
2023-03-21T11:42:37.818Z,157.50
2023-03-21T11:43:37.847Z,163.12
2023-03-21T11:44:37.789Z,163.12
2023-03-21T11:45:38.180Z,163.12
2023-03-21T11:46:37.827Z,163.12
2023-03-21T11:47:37.770Z,163.12
2023-03-21T11:48:37.762Z,163.12
2023-03-21T11:49:37.758Z,163.12
2023-03-21T11:50:37.722Z,157.50
2023-03-21T11:51:37.712Z,157.50
2023-03-21T11:52:37.704Z,157.50
2023-03-21T11:53:37.698Z,157.50
2023-03-21T11:54:37.693Z,151.88
2023-03-21T11:55:37.959Z,151.88
2023-03-21T11:56:37.687Z,157.50
2023-03-21T11:57:37.644Z,157.50
2023-03-21T11:58:37.742Z,157.50
2023-03-21T11:59:37.616Z,163.12
2023-03-21T12:00:37.648Z,168.75
2023-03-21T12:01:37.603Z,174.38
2023-03-21T12:02:37.678Z,180.00
2023-03-21T12:03:47.285Z,185.62
2023-03-21T12:04:37.649Z,191.25
2023-03-21T12:05:37.907Z,196.88
2023-03-21T12:06:37.551Z,196.88
2023-03-21T12:07:37.534Z,202.50
2023-03-21T12:08:37.581Z,196.88
2023-03-21T12:09:37.582Z,196.88
2023-03-21T12:10:37.557Z,191.25
2023-03-21T12:11:37.561Z,185.62
2023-03-21T12:12:39.478Z,185.62
2023-03-21T12:13:37.483Z,191.25
2023-03-21T12:14:37.662Z,191.25
2023-03-21T12:15:37.754Z,196.88
2023-03-21T12:16:37.445Z,202.50
2023-03-21T12:17:37.431Z,208.12
2023-03-21T12:18:37.440Z,208.12
2023-03-21T12:19:37.404Z,213.75
2023-03-21T12:20:37.382Z,213.75
2023-03-21T12:21:37.400Z,208.12
2023-03-21T12:22:37.436Z,202.50
2023-03-21T12:23:37.427Z,196.88
2023-03-21T12:24:37.395Z,196.88
2023-03-21T12:25:37.540Z,202.50
2023-03-21T12:26:37.339Z,219.38
2023-03-21T12:27:37.381Z,236.25
2023-03-21T12:28:37.333Z,247.50
2023-03-21T12:29:37.324Z,258.75
2023-03-21T12:30:37.278Z,264.38
2023-03-21T12:31:37.359Z,264.38
2023-03-21T12:32:37.291Z,264.38
2023-03-21T12:33:37.261Z,258.75
2023-03-21T12:34:37.276Z,247.50
2023-03-21T12:35:37.632Z,241.88
2023-03-21T12:36:37.216Z,236.25
2023-03-21T12:37:37.239Z,230.62
2023-03-21T12:38:37.233Z,225.00
2023-03-21T12:39:37.191Z,213.75
2023-03-21T12:40:37.177Z,213.75
2023-03-21T12:41:37.170Z,208.12
2023-03-21T12:42:37.165Z,196.88
2023-03-21T12:43:37.154Z,191.25
2023-03-21T12:44:37.144Z,180.00
2023-03-21T12:45:46.613Z,174.38
2023-03-21T12:46:37.131Z,168.75
2023-03-21T12:47:37.108Z,168.75
2023-03-21T12:48:37.157Z,163.12
2023-03-21T12:49:37.108Z,163.12
2023-03-21T12:50:37.054Z,157.50
2023-03-21T12:51:37.041Z,157.50
2023-03-21T12:52:37.070Z,157.50
2023-03-21T12:53:37.046Z,157.50
2023-03-21T12:54:37.039Z,157.50
2023-03-21T12:55:37.356Z,151.88
2023-03-21T12:56:37.011Z,151.88
2023-03-21T12:57:40.148Z,151.88